Aérodrome :
LOGIN :

S'inscrire | Disclaimer

   EN    FR    IT 

 










Légende :    VFR   VFR Marginal   IFR   IFR Intensif   IFR Très Intensif
Visi : 
Plafond : 
>= 8 km
>= 3000ft
5 à 8 km
1000 à 3000 ft
1500m à 5 km
500 à 1000 ft
800 à 1500m
200 à 500 ft
< 800m
< 200 ft
Symboles :   Orages  Brouillard  Fortes neiges  Fortes précipitations  Vent > 20 kt
SIGMETs :   Divers  Orages  Givrage  Turbulence  Onde Orograph.  Cendres Volcan.






- Altitude de l'aérodrome : 34 ft
- Code IATA : BLK


EGNH - Blackpool

DERNIER METAR :
  • 271750Z 30013KT 9999 FEW037 06/01 Q1008

METARs EXPIRÉS :
  • 271720Z 30017KT 9999 FEW033 06/01 Q1008
  • 271650Z 30017KT 9999 FEW035 06/01 Q1007
  • 271620Z 31017KT 9999 FEW032CB 07/01 Q1006
  • 271550Z 31018KT 9999 FEW028CB 07/01 Q1006
  • 271520Z 31020KT 9999 FEW027CB 07/01 Q1006

TAF TAF EGNH
Valide du 27 à 18h jusqu'au 27 à 21h UTC


271701Z 2718/2721 30015KT 9999 SCT030
ATIS : +44 1253 343 434 (x8315)



MET'MAP, la Météo Aéronautique d'un coup d'oeil ! - Copyright ORBIFLY Décembre 2007 - Disclaimer

ORBIFLY MET'MAP TEAM :

Programmation & Développement : Alexandra Zaïnal
Sur une idée originale de : Baudouin d'Aumeries
Assistance à la programmation : Marc-Olivier Méhu
Soutien technique & logistique : Manuel Goepfert

Contact : metmap@orbifly.com




SOURCES & CREDITS :

   NOAA